sensor_id;sensor_type;location;lat;lon;timestamp;P1;durP1;ratioP1;P2;durP2;ratioP2
5135;SDS011;2586;48.710;9.202;2023-03-01T00:01:59;18.00;;;10.37;;
5135;SDS011;2586;48.710;9.202;2023-03-01T00:04:25;25.73;;;12.50;;
5135;SDS011;2586;48.710;9.202;2023-03-01T00:06:50;23.23;;;11.87;;
5135;SDS011;2586;48.710;9.202;2023-03-01T00:09:16;20.70;;;11.53;;
5135;SDS011;2586;48.710;9.202;2023-03-01T00:11:42;18.20;;;10.80;;
5135;SDS011;2586;48.710;9.202;2023-03-01T00:14:08;19.97;;;11.70;;
5135;SDS011;2586;48.710;9.202;2023-03-01T00:16:35;19.13;;;10.53;;
5135;SDS011;2586;48.710;9.202;2023-03-01T00:19:06;23.30;;;11.23;;
5135;SDS011;2586;48.710;9.202;2023-03-01T00:21:34;17.90;;;10.90;;
5135;SDS011;2586;48.710;9.202;2023-03-01T00:24:00;16.47;;;10.53;;
5135;SDS011;2586;48.710;9.202;2023-03-01T00:26:27;29.33;;;11.00;;
5135;SDS011;2586;48.710;9.202;2023-03-01T00:28:53;22.63;;;11.27;;
5135;SDS011;2586;48.710;9.202;2023-03-01T00:31:22;19.87;;;10.80;;
5135;SDS011;2586;48.710;9.202;2023-03-01T00:33:54;20.07;;;11.47;;
5135;SDS011;2586;48.710;9.202;2023-03-01T00:36:24;18.17;;;11.23;;
5135;SDS011;2586;48.710;9.202;2023-03-01T00:38:52;28.40;;;11.30;;
5135;SDS011;2586;48.710;9.202;2023-03-01T00:41:18;15.90;;;11.20;;
5135;SDS011;2586;48.710;9.202;2023-03-01T00:43:45;23.87;;;12.07;;
5135;SDS011;2586;48.710;9.202;2023-03-01T00:46:14;17.47;;;11.70;;
5135;SDS011;2586;48.710;9.202;2023-03-01T00:48:42;26.87;;;11.30;;
5135;SDS011;2586;48.710;9.202;2023-03-01T00:51:09;19.70;;;10.93;;
5135;SDS011;2586;48.710;9.202;2023-03-01T00:53:54;15.43;;;9.90;;
5135;SDS011;2586;48.710;9.202;2023-03-01T00:56:22;22.60;;;12.47;;
5135;SDS011;2586;48.710;9.202;2023-03-01T00:58:48;13.17;;;9.43;;
5135;SDS011;2586;48.710;9.202;2023-03-01T01:01:14;16.20;;;10.27;;
5135;SDS011;2586;48.710;9.202;2023-03-01T01:03:52;16.73;;;10.50;;
5135;SDS011;2586;48.710;9.202;2023-03-01T01:08:48;22.73;;;11.77;;
5135;SDS011;2586;48.710;9.202;2023-03-01T01:11:14;19.00;;;10.87;;
5135;SDS011;2586;48.710;9.202;2023-03-01T01:13:40;16.60;;;10.47;;
5135;SDS011;2586;48.710;9.202;2023-03-01T01:16:06;21.30;;;11.07;;
5135;SDS011;2586;48.710;9.202;2023-03-01T01:18:33;19.17;;;10.67;;
5135;SDS011;2586;48.710;9.202;2023-03-01T01:21:03;22.50;;;12.00;;
5135;SDS011;2586;48.710;9.202;2023-03-01T01:23:33;22.47;;;10.77;;
5135;SDS011;2586;48.710;9.202;2023-03-01T01:26:05;19.07;;;11.17;;
5135;SDS011;2586;48.710;9.202;2023-03-01T01:28:32;16.00;;;10.80;;
5135;SDS011;2586;48.710;9.202;2023-03-01T01:30:58;19.73;;;11.30;;
5135;SDS011;2586;48.710;9.202;2023-03-01T01:33:24;25.20;;;12.40;;
5135;SDS011;2586;48.710;9.202;2023-03-01T01:35:50;20.17;;;10.60;;
5135;SDS011;2586;48.710;9.202;2023-03-01T01:38:15;18.80;;;10.07;;
5135;SDS011;2586;48.710;9.202;2023-03-01T01:40:44;20.00;;;12.10;;
5135;SDS011;2586;48.710;9.202;2023-03-01T01:43:16;27.20;;;13.07;;
5135;SDS011;2586;48.710;9.202;2023-03-01T01:45:59;16.13;;;10.30;;
5135;SDS011;2586;48.710;9.202;2023-03-01T01:48:39;19.10;;;11.30;;
5135;SDS011;2586;48.710;9.202;2023-03-01T01:51:16;21.03;;;11.80;;
5135;SDS011;2586;48.710;9.202;2023-03-01T01:53:46;19.73;;;11.33;;
5135;SDS011;2586;48.710;9.202;2023-03-01T01:56:15;22.33;;;12.30;;
5135;SDS011;2586;48.710;9.202;2023-03-01T01:58:43;22.83;;;12.30;;
5135;SDS011;2586;48.710;9.202;2023-03-01T02:01:09;18.37;;;11.70;;
5135;SDS011;2586;48.710;9.202;2023-03-01T02:03:36;19.70;;;11.50;;
5135;SDS011;2586;48.710;9.202;2023-03-01T02:06:11;24.20;;;12.43;;
5135;SDS011;2586;48.710;9.202;2023-03-01T02:08:57;19.53;;;10.53;;
5135;SDS011;2586;48.710;9.202;2023-03-01T02:11:24;20.83;;;12.00;;
5135;SDS011;2586;48.710;9.202;2023-03-01T02:13:52;15.27;;;11.33;;
5135;SDS011;2586;48.710;9.202;2023-03-01T02:16:19;27.83;;;12.23;;
5135;SDS011;2586;48.710;9.202;2023-03-01T02:18:45;23.93;;;11.90;;
5135;SDS011;2586;48.710;9.202;2023-03-01T02:21:20;19.53;;;12.10;;
5135;SDS011;2586;48.710;9.202;2023-03-01T02:23:48;18.77;;;11.60;;
5135;SDS011;2586;48.710;9.202;2023-03-01T02:29:02;21.10;;;12.70;;
5135;SDS011;2586;48.710;9.202;2023-03-01T02:31:28;22.20;;;10.60;;
5135;SDS011;2586;48.710;9.202;2023-03-01T02:34:14;18.60;;;12.10;;
5135;SDS011;2586;48.710;9.202;2023-03-01T02:36:49;26.47;;;12.70;;
5135;SDS011;2586;48.710;9.202;2023-03-01T02:39:26;23.53;;;11.37;;
5135;SDS011;2586;48.710;9.202;2023-03-01T02:41:55;20.40;;;11.23;;
5135;SDS011;2586;48.710;9.202;2023-03-01T02:44:22;28.17;;;13.60;;
5135;SDS011;2586;48.710;9.202;2023-03-01T02:46:50;25.23;;;13.30;;
5135;SDS011;2586;48.710;9.202;2023-03-01T02:49:18;19.43;;;11.30;;
5135;SDS011;2586;48.710;9.202;2023-03-01T02:57:26;25.67;;;12.57;;
5135;SDS011;2586;48.710;9.202;2023-03-01T02:59:54;24.10;;;13.67;;
5135;SDS011;2586;48.710;9.202;2023-03-01T03:02:22;28.50;;;14.10;;
5135;SDS011;2586;48.710;9.202;2023-03-01T03:05:05;24.17;;;13.67;;
5135;SDS011;2586;48.710;9.202;2023-03-01T03:07:36;22.07;;;11.47;;
5135;SDS011;2586;48.710;9.202;2023-03-01T03:10:04;22.27;;;12.23;;
5135;SDS011;2586;48.710;9.202;2023-03-01T03:12:31;25.87;;;13.60;;
5135;SDS011;2586;48.710;9.202;2023-03-01T03:14:56;27.90;;;13.53;;
5135;SDS011;2586;48.710;9.202;2023-03-01T03:17:22;27.30;;;14.10;;
5135;SDS011;2586;48.710;9.202;2023-03-01T03:19:48;24.90;;;13.87;;
5135;SDS011;2586;48.710;9.202;2023-03-01T03:22:14;27.17;;;12.97;;
5135;SDS011;2586;48.710;9.202;2023-03-01T03:24:40;25.73;;;13.40;;
5135;SDS011;2586;48.710;9.202;2023-03-01T03:27:05;26.00;;;13.70;;
5135;SDS011;2586;48.710;9.202;2023-03-01T03:29:31;25.57;;;13.50;;
5135;SDS011;2586;48.710;9.202;2023-03-01T03:31:57;23.70;;;14.57;;
5135;SDS011;2586;48.710;9.202;2023-03-01T03:34:23;25.50;;;14.50;;
5135;SDS011;2586;48.710;9.202;2023-03-01T03:36:53;25.70;;;14.07;;
5135;SDS011;2586;48.710;9.202;2023-03-01T03:39:24;27.67;;;14.87;;
5135;SDS011;2586;48.710;9.202;2023-03-01T03:41:50;25.33;;;13.77;;
5135;SDS011;2586;48.710;9.202;2023-03-01T03:44:16;24.63;;;12.87;;
5135;SDS011;2586;48.710;9.202;2023-03-01T03:46:41;20.60;;;13.00;;
5135;SDS011;2586;48.710;9.202;2023-03-01T03:49:07;20.60;;;12.90;;
5135;SDS011;2586;48.710;9.202;2023-03-01T03:51:32;22.97;;;13.47;;
5135;SDS011;2586;48.710;9.202;2023-03-01T03:53:58;24.30;;;12.77;;
5135;SDS011;2586;48.710;9.202;2023-03-01T03:56:23;22.93;;;13.23;;
5135;SDS011;2586;48.710;9.202;2023-03-01T03:58:51;20.50;;;12.33;;
5135;SDS011;2586;48.710;9.202;2023-03-01T04:01:17;29.47;;;14.20;;
5135;SDS011;2586;48.710;9.202;2023-03-01T04:03:42;23.53;;;12.67;;
5135;SDS011;2586;48.710;9.202;2023-03-01T04:06:11;20.83;;;13.33;;
5135;SDS011;2586;48.710;9.202;2023-03-01T04:08:37;29.07;;;16.30;;
5135;SDS011;2586;48.710;9.202;2023-03-01T04:11:03;24.80;;;14.00;;
5135;SDS011;2586;48.710;9.202;2023-03-01T04:13:49;28.17;;;15.50;;
5135;SDS011;2586;48.710;9.202;2023-03-01T04:16:15;27.77;;;14.33;;
5135;SDS011;2586;48.710;9.202;2023-03-01T04:18:40;22.97;;;13.90;;
5135;SDS011;2586;48.710;9.202;2023-03-01T04:21:06;24.83;;;14.10;;
5135;SDS011;2586;48.710;9.202;2023-03-01T04:23:31;25.00;;;15.73;;
5135;SDS011;2586;48.710;9.202;2023-03-01T04:25:58;28.70;;;13.40;;
5135;SDS011;2586;48.710;9.202;2023-03-01T04:28:26;29.20;;;13.60;;
5135;SDS011;2586;48.710;9.202;2023-03-01T04:30:53;20.87;;;13.53;;
5135;SDS011;2586;48.710;9.202;2023-03-01T04:33:21;22.03;;;13.77;;
5135;SDS011;2586;48.710;9.202;2023-03-01T04:35:47;21.80;;;12.57;;
5135;SDS011;2586;48.710;9.202;2023-03-01T04:38:14;21.93;;;13.80;;
5135;SDS011;2586;48.710;9.202;2023-03-01T04:40:40;24.67;;;13.90;;
5135;SDS011;2586;48.710;9.202;2023-03-01T04:43:08;24.73;;;13.63;;
5135;SDS011;2586;48.710;9.202;2023-03-01T04:45:34;22.83;;;12.77;;
5135;SDS011;2586;48.710;9.202;2023-03-01T04:48:00;25.60;;;12.83;;
5135;SDS011;2586;48.710;9.202;2023-03-01T04:50:27;24.53;;;13.77;;
5135;SDS011;2586;48.710;9.202;2023-03-01T04:52:52;26.03;;;14.60;;
5135;SDS011;2586;48.710;9.202;2023-03-01T04:55:18;24.87;;;12.30;;
5135;SDS011;2586;48.710;9.202;2023-03-01T04:57:44;23.20;;;13.10;;
5135;SDS011;2586;48.710;9.202;2023-03-01T05:00:11;24.20;;;14.23;;
5135;SDS011;2586;48.710;9.202;2023-03-01T05:07:59;27.47;;;17.10;;
5135;SDS011;2586;48.710;9.202;2023-03-01T05:10:27;27.37;;;14.47;;
5135;SDS011;2586;48.710;9.202;2023-03-01T05:12:56;24.30;;;14.77;;
5135;SDS011;2586;48.710;9.202;2023-03-01T05:15:23;28.73;;;16.03;;
5135;SDS011;2586;48.710;9.202;2023-03-01T05:17:52;28.63;;;15.17;;
5135;SDS011;2586;48.710;9.202;2023-03-01T05:20:19;25.07;;;14.03;;
5135;SDS011;2586;48.710;9.202;2023-03-01T05:22:49;26.87;;;14.97;;
5135;SDS011;2586;48.710;9.202;2023-03-01T05:25:20;21.83;;;13.50;;
5135;SDS011;2586;48.710;9.202;2023-03-01T05:27:46;25.23;;;14.90;;
5135;SDS011;2586;48.710;9.202;2023-03-01T05:30:12;26.57;;;14.80;;
5135;SDS011;2586;48.710;9.202;2023-03-01T05:35:12;26.77;;;14.30;;
5135;SDS011;2586;48.710;9.202;2023-03-01T05:37:39;22.67;;;14.10;;
5135;SDS011;2586;48.710;9.202;2023-03-01T05:40:06;29.83;;;14.57;;
5135;SDS011;2586;48.710;9.202;2023-03-01T05:42:40;27.97;;;14.23;;
5135;SDS011;2586;48.710;9.202;2023-03-01T05:45:10;31.23;;;15.77;;
5135;SDS011;2586;48.710;9.202;2023-03-01T05:47:37;33.00;;;15.30;;
5135;SDS011;2586;48.710;9.202;2023-03-01T05:50:03;30.10;;;13.80;;
5135;SDS011;2586;48.710;9.202;2023-03-01T05:52:29;24.40;;;14.30;;
5135;SDS011;2586;48.710;9.202;2023-03-01T05:54:54;23.20;;;14.73;;
5135;SDS011;2586;48.710;9.202;2023-03-01T05:57:20;24.53;;;13.20;;
5135;SDS011;2586;48.710;9.202;2023-03-01T05:59:45;24.90;;;14.00;;
5135;SDS011;2586;48.710;9.202;2023-03-01T06:02:11;24.80;;;14.30;;
5135;SDS011;2586;48.710;9.202;2023-03-01T06:04:37;22.57;;;13.13;;
5135;SDS011;2586;48.710;9.202;2023-03-01T06:07:02;21.90;;;12.90;;
5135;SDS011;2586;48.710;9.202;2023-03-01T06:09:28;32.20;;;14.63;;
5135;SDS011;2586;48.710;9.202;2023-03-01T06:11:53;27.90;;;14.60;;
5135;SDS011;2586;48.710;9.202;2023-03-01T06:14:19;26.50;;;14.60;;
5135;SDS011;2586;48.710;9.202;2023-03-01T06:16:45;24.70;;;13.50;;
5135;SDS011;2586;48.710;9.202;2023-03-01T06:19:11;21.67;;;12.43;;
5135;SDS011;2586;48.710;9.202;2023-03-01T06:21:36;26.33;;;15.57;;
5135;SDS011;2586;48.710;9.202;2023-03-01T06:24:02;27.03;;;14.10;;
5135;SDS011;2586;48.710;9.202;2023-03-01T06:26:28;27.70;;;14.70;;
5135;SDS011;2586;48.710;9.202;2023-03-01T06:28:53;25.70;;;14.20;;
5135;SDS011;2586;48.710;9.202;2023-03-01T06:31:19;34.07;;;15.00;;
5135;SDS011;2586;48.710;9.202;2023-03-01T06:33:44;31.33;;;15.00;;
5135;SDS011;2586;48.710;9.202;2023-03-01T06:36:10;27.67;;;14.80;;
5135;SDS011;2586;48.710;9.202;2023-03-01T06:38:35;25.33;;;15.40;;
5135;SDS011;2586;48.710;9.202;2023-03-01T06:41:01;29.43;;;14.90;;
5135;SDS011;2586;48.710;9.202;2023-03-01T06:43:26;24.77;;;15.20;;
5135;SDS011;2586;48.710;9.202;2023-03-01T06:45:52;26.43;;;14.30;;
5135;SDS011;2586;48.710;9.202;2023-03-01T06:48:18;24.67;;;15.20;;
5135;SDS011;2586;48.710;9.202;2023-03-01T06:50:43;24.07;;;13.57;;
5135;SDS011;2586;48.710;9.202;2023-03-01T06:53:09;21.77;;;12.73;;
5135;SDS011;2586;48.710;9.202;2023-03-01T06:55:34;25.90;;;15.70;;
5135;SDS011;2586;48.710;9.202;2023-03-01T06:58:00;25.93;;;14.70;;
5135;SDS011;2586;48.710;9.202;2023-03-01T07:00:27;31.80;;;15.13;;
5135;SDS011;2586;48.710;9.202;2023-03-01T07:02:53;28.20;;;15.00;;
5135;SDS011;2586;48.710;9.202;2023-03-01T07:05:19;25.10;;;13.80;;
5135;SDS011;2586;48.710;9.202;2023-03-01T07:07:45;31.23;;;14.93;;
5135;SDS011;2586;48.710;9.202;2023-03-01T07:10:11;29.83;;;16.30;;
5135;SDS011;2586;48.710;9.202;2023-03-01T07:12:36;29.90;;;15.93;;
5135;SDS011;2586;48.710;9.202;2023-03-01T07:15:02;28.07;;;15.80;;
5135;SDS011;2586;48.710;9.202;2023-03-01T07:17:28;26.47;;;15.63;;
5135;SDS011;2586;48.710;9.202;2023-03-01T07:19:54;25.77;;;14.50;;
5135;SDS011;2586;48.710;9.202;2023-03-01T07:22:19;26.10;;;13.93;;
5135;SDS011;2586;48.710;9.202;2023-03-01T07:24:45;24.77;;;14.37;;
5135;SDS011;2586;48.710;9.202;2023-03-01T07:27:10;27.47;;;14.63;;
5135;SDS011;2586;48.710;9.202;2023-03-01T07:29:36;36.67;;;15.53;;
5135;SDS011;2586;48.710;9.202;2023-03-01T07:32:02;24.47;;;15.37;;
5135;SDS011;2586;48.710;9.202;2023-03-01T07:34:28;27.33;;;14.90;;
5135;SDS011;2586;48.710;9.202;2023-03-01T07:36:54;24.97;;;14.70;;
5135;SDS011;2586;48.710;9.202;2023-03-01T07:39:20;32.37;;;15.30;;
5135;SDS011;2586;48.710;9.202;2023-03-01T07:41:47;21.30;;;13.60;;
5135;SDS011;2586;48.710;9.202;2023-03-01T07:44:13;22.47;;;13.03;;
5135;SDS011;2586;48.710;9.202;2023-03-01T07:46:40;35.43;;;14.93;;
5135;SDS011;2586;48.710;9.202;2023-03-01T07:49:05;33.47;;;16.07;;
5135;SDS011;2586;48.710;9.202;2023-03-01T07:51:31;23.83;;;14.73;;
5135;SDS011;2586;48.710;9.202;2023-03-01T07:53:57;25.67;;;15.30;;
5135;SDS011;2586;48.710;9.202;2023-03-01T07:56:22;25.77;;;14.07;;
5135;SDS011;2586;48.710;9.202;2023-03-01T07:58:48;24.77;;;13.97;;
5135;SDS011;2586;48.710;9.202;2023-03-01T08:01:14;23.40;;;14.70;;
5135;SDS011;2586;48.710;9.202;2023-03-01T08:03:41;27.43;;;15.87;;
5135;SDS011;2586;48.710;9.202;2023-03-01T08:06:08;22.50;;;13.17;;
5135;SDS011;2586;48.710;9.202;2023-03-01T08:08:35;22.63;;;13.20;;
5135;SDS011;2586;48.710;9.202;2023-03-01T08:11:02;24.17;;;13.90;;
5135;SDS011;2586;48.710;9.202;2023-03-01T08:13:29;28.57;;;14.70;;
5135;SDS011;2586;48.710;9.202;2023-03-01T08:16:00;25.00;;;14.10;;
5135;SDS011;2586;48.710;9.202;2023-03-01T08:18:27;26.23;;;14.10;;
5135;SDS011;2586;48.710;9.202;2023-03-01T08:20:52;24.83;;;14.17;;
5135;SDS011;2586;48.710;9.202;2023-03-01T08:23:18;29.27;;;15.10;;
5135;SDS011;2586;48.710;9.202;2023-03-01T08:25:43;22.30;;;15.17;;
5135;SDS011;2586;48.710;9.202;2023-03-01T08:28:09;24.07;;;14.73;;
5135;SDS011;2586;48.710;9.202;2023-03-01T08:30:34;28.03;;;15.23;;
5135;SDS011;2586;48.710;9.202;2023-03-01T08:33:00;24.20;;;15.03;;
5135;SDS011;2586;48.710;9.202;2023-03-01T08:35:26;24.30;;;14.50;;
5135;SDS011;2586;48.710;9.202;2023-03-01T08:37:51;25.37;;;15.73;;
5135;SDS011;2586;48.710;9.202;2023-03-01T08:40:17;22.43;;;15.30;;
5135;SDS011;2586;48.710;9.202;2023-03-01T08:42:42;24.53;;;15.17;;
5135;SDS011;2586;48.710;9.202;2023-03-01T08:45:08;33.33;;;15.57;;
5135;SDS011;2586;48.710;9.202;2023-03-01T08:47:35;24.43;;;14.77;;
5135;SDS011;2586;48.710;9.202;2023-03-01T08:50:00;22.93;;;15.70;;
5135;SDS011;2586;48.710;9.202;2023-03-01T08:52:26;23.77;;;15.17;;
5135;SDS011;2586;48.710;9.202;2023-03-01T08:54:52;24.73;;;14.53;;
5135;SDS011;2586;48.710;9.202;2023-03-01T08:57:18;23.10;;;14.37;;
5135;SDS011;2586;48.710;9.202;2023-03-01T08:59:43;21.33;;;14.47;;
5135;SDS011;2586;48.710;9.202;2023-03-01T09:02:14;25.60;;;16.30;;
5135;SDS011;2586;48.710;9.202;2023-03-01T09:04:41;21.13;;;13.77;;
5135;SDS011;2586;48.710;9.202;2023-03-01T09:07:06;21.37;;;14.87;;
5135;SDS011;2586;48.710;9.202;2023-03-01T09:09:33;20.90;;;13.33;;
5135;SDS011;2586;48.710;9.202;2023-03-01T09:11:59;25.87;;;15.10;;
5135;SDS011;2586;48.710;9.202;2023-03-01T09:14:24;26.43;;;16.47;;
5135;SDS011;2586;48.710;9.202;2023-03-01T09:16:50;25.27;;;15.53;;
5135;SDS011;2586;48.710;9.202;2023-03-01T09:19:15;22.27;;;13.70;;
5135;SDS011;2586;48.710;9.202;2023-03-01T09:21:41;25.40;;;15.30;;
5135;SDS011;2586;48.710;9.202;2023-03-01T09:24:17;23.67;;;14.20;;
5135;SDS011;2586;48.710;9.202;2023-03-01T09:26:46;24.43;;;15.23;;
5135;SDS011;2586;48.710;9.202;2023-03-01T09:29:13;23.20;;;13.93;;
5135;SDS011;2586;48.710;9.202;2023-03-01T09:31:39;20.40;;;14.57;;
5135;SDS011;2586;48.710;9.202;2023-03-01T09:34:05;36.20;;;15.00;;
5135;SDS011;2586;48.710;9.202;2023-03-01T09:36:31;29.40;;;15.17;;
5135;SDS011;2586;48.710;9.202;2023-03-01T09:38:59;19.47;;;15.50;;
5135;SDS011;2586;48.710;9.202;2023-03-01T09:41:41;30.93;;;15.60;;
5135;SDS011;2586;48.710;9.202;2023-03-01T09:44:16;29.00;;;15.10;;
5135;SDS011;2586;48.710;9.202;2023-03-01T09:46:52;24.40;;;14.87;;
5135;SDS011;2586;48.710;9.202;2023-03-01T09:49:19;22.37;;;14.30;;
5135;SDS011;2586;48.710;9.202;2023-03-01T09:52:00;29.50;;;15.37;;
5135;SDS011;2586;48.710;9.202;2023-03-01T09:54:37;23.23;;;14.73;;
5135;SDS011;2586;48.710;9.202;2023-03-01T09:57:09;23.83;;;14.60;;
5135;SDS011;2586;48.710;9.202;2023-03-01T10:05:05;24.53;;;15.13;;
5135;SDS011;2586;48.710;9.202;2023-03-01T10:08:02;21.40;;;15.43;;
5135;SDS011;2586;48.710;9.202;2023-03-01T10:10:33;19.40;;;13.73;;
5135;SDS011;2586;48.710;9.202;2023-03-01T10:13:23;22.73;;;14.10;;
5135;SDS011;2586;48.710;9.202;2023-03-01T10:16:15;23.73;;;14.80;;
5135;SDS011;2586;48.710;9.202;2023-03-01T10:18:43;21.20;;;15.17;;
5135;SDS011;2586;48.710;9.202;2023-03-01T10:21:19;18.40;;;13.33;;
5135;SDS011;2586;48.710;9.202;2023-03-01T10:23:45;18.87;;;14.30;;
5135;SDS011;2586;48.710;9.202;2023-03-01T10:29:05;20.00;;;14.07;;
5135;SDS011;2586;48.710;9.202;2023-03-01T10:34:10;25.23;;;14.60;;
5135;SDS011;2586;48.710;9.202;2023-03-01T10:36:39;24.07;;;14.90;;
5135;SDS011;2586;48.710;9.202;2023-03-01T10:39:11;21.57;;;16.07;;
5135;SDS011;2586;48.710;9.202;2023-03-01T10:41:49;23.30;;;16.10;;
5135;SDS011;2586;48.710;9.202;2023-03-01T10:49:46;25.23;;;16.47;;
5135;SDS011;2586;48.710;9.202;2023-03-01T10:52:30;24.20;;;14.20;;
5135;SDS011;2586;48.710;9.202;2023-03-01T10:55:01;22.37;;;15.80;;
5135;SDS011;2586;48.710;9.202;2023-03-01T10:57:34;26.33;;;15.30;;
5135;SDS011;2586;48.710;9.202;2023-03-01T11:02:45;21.40;;;16.10;;
5135;SDS011;2586;48.710;9.202;2023-03-01T11:07:46;24.13;;;15.27;;
5135;SDS011;2586;48.710;9.202;2023-03-01T11:10:19;24.17;;;15.47;;
5135;SDS011;2586;48.710;9.202;2023-03-01T11:13:05;26.37;;;15.63;;
5135;SDS011;2586;48.710;9.202;2023-03-01T11:15:33;26.70;;;16.60;;
5135;SDS011;2586;48.710;9.202;2023-03-01T11:17:59;22.27;;;13.80;;
5135;SDS011;2586;48.710;9.202;2023-03-01T11:20:29;19.90;;;13.93;;
5135;SDS011;2586;48.710;9.202;2023-03-01T11:22:59;25.13;;;15.00;;
5135;SDS011;2586;48.710;9.202;2023-03-01T11:25:30;20.30;;;15.13;;
5135;SDS011;2586;48.710;9.202;2023-03-01T11:28:07;21.87;;;15.10;;
5135;SDS011;2586;48.710;9.202;2023-03-01T11:30:39;22.00;;;14.83;;
5135;SDS011;2586;48.710;9.202;2023-03-01T11:38:40;24.23;;;14.93;;
5135;SDS011;2586;48.710;9.202;2023-03-01T11:46:25;25.00;;;15.20;;
5135;SDS011;2586;48.710;9.202;2023-03-01T11:51:24;17.63;;;14.70;;
5135;SDS011;2586;48.710;9.202;2023-03-01T11:53:59;18.63;;;15.27;;
5135;SDS011;2586;48.710;9.202;2023-03-01T11:56:32;22.37;;;15.00;;
5135;SDS011;2586;48.710;9.202;2023-03-01T11:59:10;20.50;;;15.60;;
5135;SDS011;2586;48.710;9.202;2023-03-01T12:01:50;19.40;;;13.97;;
5135;SDS011;2586;48.710;9.202;2023-03-01T12:07:37;21.07;;;14.80;;
5135;SDS011;2586;48.710;9.202;2023-03-01T12:10:27;21.17;;;15.20;;
5135;SDS011;2586;48.710;9.202;2023-03-01T12:15:49;17.20;;;13.50;;
5135;SDS011;2586;48.710;9.202;2023-03-01T12:32:56;18.60;;;13.03;;
5135;SDS011;2586;48.710;9.202;2023-03-01T12:35:39;19.87;;;14.27;;
5135;SDS011;2586;48.710;9.202;2023-03-01T12:43:58;19.43;;;14.00;;
5135;SDS011;2586;48.710;9.202;2023-03-01T12:49:21;17.43;;;12.80;;
5135;SDS011;2586;48.710;9.202;2023-03-01T12:51:54;16.50;;;13.23;;
5135;SDS011;2586;48.710;9.202;2023-03-01T12:54:29;20.97;;;13.60;;
5135;SDS011;2586;48.710;9.202;2023-03-01T12:56:59;14.97;;;12.70;;
5135;SDS011;2586;48.710;9.202;2023-03-01T12:59:44;17.53;;;13.10;;
5135;SDS011;2586;48.710;9.202;2023-03-01T13:02:35;16.10;;;13.60;;
5135;SDS011;2586;48.710;9.202;2023-03-01T13:08:06;13.50;;;11.70;;
5135;SDS011;2586;48.710;9.202;2023-03-01T13:10:49;27.20;;;13.37;;
5135;SDS011;2586;48.710;9.202;2023-03-01T13:13:20;17.33;;;13.40;;
5135;SDS011;2586;48.710;9.202;2023-03-01T13:15:50;16.57;;;12.67;;
5135;SDS011;2586;48.710;9.202;2023-03-01T13:31:03;18.67;;;12.20;;
5135;SDS011;2586;48.710;9.202;2023-03-01T13:35:58;17.20;;;10.90;;
5135;SDS011;2586;48.710;9.202;2023-03-01T13:38:36;14.57;;;12.60;;
5135;SDS011;2586;48.710;9.202;2023-03-01T13:44:21;18.33;;;13.30;;
5135;SDS011;2586;48.710;9.202;2023-03-01T13:46:52;17.87;;;12.60;;
5135;SDS011;2586;48.710;9.202;2023-03-01T13:49:22;16.90;;;12.70;;
5135;SDS011;2586;48.710;9.202;2023-03-01T13:51:51;15.03;;;11.80;;
5135;SDS011;2586;48.710;9.202;2023-03-01T13:54:22;15.70;;;11.27;;
5135;SDS011;2586;48.710;9.202;2023-03-01T13:56:53;18.13;;;13.30;;
5135;SDS011;2586;48.710;9.202;2023-03-01T13:59:20;17.67;;;12.27;;
5135;SDS011;2586;48.710;9.202;2023-03-01T14:01:54;18.40;;;12.50;;
5135;SDS011;2586;48.710;9.202;2023-03-01T14:04:23;13.83;;;11.63;;
5135;SDS011;2586;48.710;9.202;2023-03-01T14:06:50;16.37;;;11.43;;
5135;SDS011;2586;48.710;9.202;2023-03-01T14:19:47;25.00;;;12.93;;
5135;SDS011;2586;48.710;9.202;2023-03-01T14:22:26;24.43;;;13.80;;
5135;SDS011;2586;48.710;9.202;2023-03-01T14:24:57;20.53;;;14.80;;
5135;SDS011;2586;48.710;9.202;2023-03-01T14:27:26;23.00;;;15.30;;
5135;SDS011;2586;48.710;9.202;2023-03-01T14:30:02;21.17;;;15.03;;
5135;SDS011;2586;48.710;9.202;2023-03-01T14:32:37;21.40;;;15.23;;
5135;SDS011;2586;48.710;9.202;2023-03-01T14:35:19;20.80;;;15.10;;
5135;SDS011;2586;48.710;9.202;2023-03-01T14:37:52;22.63;;;15.33;;
5135;SDS011;2586;48.710;9.202;2023-03-01T14:40:22;36.53;;;16.63;;
5135;SDS011;2586;48.710;9.202;2023-03-01T14:42:49;16.97;;;13.90;;
5135;SDS011;2586;48.710;9.202;2023-03-01T14:45:15;18.80;;;14.10;;
5135;SDS011;2586;48.710;9.202;2023-03-01T14:47:43;19.70;;;14.40;;
5135;SDS011;2586;48.710;9.202;2023-03-01T14:50:26;16.00;;;13.93;;
5135;SDS011;2586;48.710;9.202;2023-03-01T14:53:01;19.30;;;13.90;;
5135;SDS011;2586;48.710;9.202;2023-03-01T14:55:38;23.83;;;14.17;;
5135;SDS011;2586;48.710;9.202;2023-03-01T14:58:11;18.20;;;13.40;;
5135;SDS011;2586;48.710;9.202;2023-03-01T15:00:38;16.03;;;12.60;;
5135;SDS011;2586;48.710;9.202;2023-03-01T15:03:24;19.90;;;14.10;;
5135;SDS011;2586;48.710;9.202;2023-03-01T15:06:05;17.83;;;12.90;;
5135;SDS011;2586;48.710;9.202;2023-03-01T15:08:31;16.03;;;13.37;;
5135;SDS011;2586;48.710;9.202;2023-03-01T15:10:59;23.73;;;13.63;;
5135;SDS011;2586;48.710;9.202;2023-03-01T15:13:45;18.67;;;13.13;;
5135;SDS011;2586;48.710;9.202;2023-03-01T15:19:14;14.27;;;12.30;;
5135;SDS011;2586;48.710;9.202;2023-03-01T15:21:43;24.90;;;14.63;;
5135;SDS011;2586;48.710;9.202;2023-03-01T15:26:44;21.97;;;13.60;;
5135;SDS011;2586;48.710;9.202;2023-03-01T15:29:19;14.17;;;12.53;;
5135;SDS011;2586;48.710;9.202;2023-03-01T15:34:30;15.80;;;12.23;;
5135;SDS011;2586;48.710;9.202;2023-03-01T15:36:58;19.10;;;12.83;;
5135;SDS011;2586;48.710;9.202;2023-03-01T15:39:36;17.73;;;12.20;;
5135;SDS011;2586;48.710;9.202;2023-03-01T15:42:12;15.53;;;10.63;;
5135;SDS011;2586;48.710;9.202;2023-03-01T15:47:54;25.50;;;14.37;;
5135;SDS011;2586;48.710;9.202;2023-03-01T15:50:31;17.00;;;12.43;;
5135;SDS011;2586;48.710;9.202;2023-03-01T15:52:59;17.30;;;11.93;;
5135;SDS011;2586;48.710;9.202;2023-03-01T15:55:27;22.57;;;12.30;;
5135;SDS011;2586;48.710;9.202;2023-03-01T15:58:13;20.23;;;13.17;;
5135;SDS011;2586;48.710;9.202;2023-03-01T16:00:39;20.47;;;14.47;;
5135;SDS011;2586;48.710;9.202;2023-03-01T16:03:05;22.63;;;13.50;;
5135;SDS011;2586;48.710;9.202;2023-03-01T16:05:34;17.20;;;12.17;;
5135;SDS011;2586;48.710;9.202;2023-03-01T16:08:01;21.20;;;13.93;;
5135;SDS011;2586;48.710;9.202;2023-03-01T16:10:27;24.10;;;14.00;;
5135;SDS011;2586;48.710;9.202;2023-03-01T16:12:53;21.90;;;14.07;;
5135;SDS011;2586;48.710;9.202;2023-03-01T16:17:46;19.67;;;14.00;;
5135;SDS011;2586;48.710;9.202;2023-03-01T16:20:12;21.60;;;13.60;;
5135;SDS011;2586;48.710;9.202;2023-03-01T16:22:40;23.20;;;15.07;;
5135;SDS011;2586;48.710;9.202;2023-03-01T16:25:10;21.83;;;14.70;;
5135;SDS011;2586;48.710;9.202;2023-03-01T16:27:37;26.33;;;14.60;;
5135;SDS011;2586;48.710;9.202;2023-03-01T16:30:03;22.90;;;15.27;;
5135;SDS011;2586;48.710;9.202;2023-03-01T16:32:30;22.47;;;15.03;;
5135;SDS011;2586;48.710;9.202;2023-03-01T16:34:56;26.40;;;14.27;;
5135;SDS011;2586;48.710;9.202;2023-03-01T16:37:22;20.00;;;14.97;;
5135;SDS011;2586;48.710;9.202;2023-03-01T16:39:47;19.50;;;14.23;;
5135;SDS011;2586;48.710;9.202;2023-03-01T16:42:16;23.00;;;15.33;;
5135;SDS011;2586;48.710;9.202;2023-03-01T16:44:42;23.70;;;15.07;;
5135;SDS011;2586;48.710;9.202;2023-03-01T16:47:08;22.63;;;14.20;;
5135;SDS011;2586;48.710;9.202;2023-03-01T16:49:33;23.93;;;14.40;;
5135;SDS011;2586;48.710;9.202;2023-03-01T16:51:59;20.33;;;13.27;;
5135;SDS011;2586;48.710;9.202;2023-03-01T16:54:24;28.00;;;13.90;;
5135;SDS011;2586;48.710;9.202;2023-03-01T16:56:50;23.27;;;14.33;;
5135;SDS011;2586;48.710;9.202;2023-03-01T16:59:16;23.53;;;13.80;;
5135;SDS011;2586;48.710;9.202;2023-03-01T17:01:43;22.53;;;15.50;;
5135;SDS011;2586;48.710;9.202;2023-03-01T17:04:10;26.37;;;15.10;;
5135;SDS011;2586;48.710;9.202;2023-03-01T17:06:36;22.30;;;13.57;;
5135;SDS011;2586;48.710;9.202;2023-03-01T17:09:02;26.07;;;14.30;;